createdAt,value
2022-08-20T00:02:14.391Z,13.38
2022-08-20T00:04:42.521Z,13.43
2022-08-20T00:07:10.572Z,14.07
2022-08-20T00:09:38.835Z,14.85
2022-08-20T00:12:07.670Z,14.80
2022-08-20T00:14:36.829Z,15.73
2022-08-20T00:17:07.173Z,14.07
2022-08-20T00:19:35.364Z,14.88
2022-08-20T00:22:03.382Z,14.43
2022-08-20T00:24:31.437Z,17.10
2022-08-20T00:26:59.525Z,17.08
2022-08-20T00:29:27.571Z,15.75
2022-08-20T00:31:55.601Z,16.33
2022-08-20T00:34:25.101Z,15.85
2022-08-20T00:36:53.224Z,16.35
2022-08-20T00:39:21.262Z,17.48
2022-08-20T00:41:49.541Z,16.73
2022-08-20T00:44:19.829Z,18.45
2022-08-20T00:46:48.452Z,19.50
2022-08-20T00:49:19.003Z,18.27
2022-08-20T00:51:52.932Z,18.60
2022-08-20T00:54:24.951Z,19.80
2022-08-20T00:56:58.541Z,18.60
2022-08-20T00:59:30.778Z,20.48
2022-08-20T01:01:59.882Z,20.92
2022-08-20T01:04:31.357Z,22.40
2022-08-20T01:07:01.081Z,22.30
2022-08-20T01:09:49.784Z,22.77
2022-08-20T01:12:18.565Z,22.95
2022-08-20T01:14:48.396Z,22.92
2022-08-20T01:17:20.071Z,21.73
2022-08-20T01:19:52.780Z,23.10
2022-08-20T01:25:17.992Z,21.63
2022-08-20T01:27:55.118Z,22.05
2022-08-20T01:30:27.670Z,23.13
2022-08-20T01:32:56.159Z,22.55
2022-08-20T01:35:25.940Z,21.55
2022-08-20T01:37:54.219Z,22.30
2022-08-20T01:40:48.675Z,22.20
2022-08-20T01:43:18.132Z,23.13
2022-08-20T01:45:46.493Z,22.70
2022-08-20T01:48:19.494Z,22.17
2022-08-20T01:50:55.363Z,22.20
2022-08-20T01:53:33.405Z,23.40
2022-08-20T01:56:02.512Z,23.05
2022-08-20T01:58:33.287Z,21.98
2022-08-20T02:01:01.346Z,22.70
2022-08-20T02:03:33.555Z,22.92
2022-08-20T02:06:05.382Z,21.58
2022-08-20T02:08:33.873Z,22.98
2022-08-20T02:11:02.301Z,21.45
2022-08-20T02:13:32.641Z,21.13
2022-08-20T02:16:00.873Z,21.83
2022-08-20T02:18:29.107Z,21.05
2022-08-20T02:20:57.107Z,20.45
2022-08-20T02:23:25.150Z,21.20
2022-08-20T02:25:53.233Z,21.20
2022-08-20T02:28:21.629Z,21.27
2022-08-20T02:30:55.317Z,21.33
2022-08-20T02:33:24.687Z,20.02
2022-08-20T02:35:56.479Z,19.65
2022-08-20T02:38:24.877Z,19.30
2022-08-20T02:40:53.194Z,19.55
2022-08-20T02:43:21.578Z,19.35
2022-08-20T02:45:51.514Z,19.65
2022-08-20T02:48:22.967Z,20.27
2022-08-20T02:50:53.579Z,19.08
2022-08-20T02:53:22.377Z,18.80
2022-08-20T02:55:50.727Z,18.98
2022-08-20T02:58:19.530Z,20.08
2022-08-20T03:00:47.695Z,18.45
2022-08-20T03:03:20.321Z,18.13
2022-08-20T03:05:48.247Z,19.08
2022-08-20T03:08:16.973Z,17.92
2022-08-20T03:10:48.011Z,17.55
2022-08-20T03:13:17.046Z,18.30
2022-08-20T03:15:48.004Z,19.08
2022-08-20T03:18:18.737Z,19.58
2022-08-20T03:20:47.577Z,18.25
2022-08-20T03:23:21.391Z,17.83
2022-08-20T03:25:50.047Z,17.27
2022-08-20T03:28:20.039Z,17.10
2022-08-20T03:30:48.417Z,17.15
2022-08-20T03:33:20.120Z,17.55
2022-08-20T03:35:48.874Z,16.02
2022-08-20T03:38:18.271Z,17.25
2022-08-20T03:40:57.823Z,17.10
2022-08-20T03:43:26.011Z,17.92
2022-08-20T03:45:54.073Z,17.35
2022-08-20T03:48:23.826Z,17.60
2022-08-20T03:50:53.010Z,17.00
2022-08-20T03:53:21.156Z,17.33
2022-08-20T03:55:53.714Z,19.40
2022-08-20T03:58:30.043Z,17.77
2022-08-20T04:01:05.405Z,17.52
2022-08-20T04:03:35.470Z,18.63
2022-08-20T04:06:03.906Z,18.27
2022-08-20T04:08:31.949Z,18.08
2022-08-20T04:11:00.382Z,18.00
2022-08-20T04:13:29.804Z,18.52
2022-08-20T04:15:59.035Z,18.55
2022-08-20T04:18:27.761Z,17.55
2022-08-20T04:20:57.435Z,20.20
2022-08-20T04:23:25.521Z,18.27
2022-08-20T04:25:56.526Z,17.77
2022-08-20T04:28:27.379Z,18.83
2022-08-20T04:30:56.529Z,19.65
2022-08-20T04:33:33.470Z,19.17
2022-08-20T04:36:06.526Z,18.90
2022-08-20T04:38:49.880Z,18.45
2022-08-20T04:41:22.825Z,18.88
2022-08-20T04:43:54.433Z,18.65
2022-08-20T04:46:25.497Z,19.00
2022-08-20T04:48:53.981Z,18.73
2022-08-20T04:51:23.610Z,18.77
2022-08-20T04:53:54.312Z,17.80
2022-08-20T04:56:24.303Z,18.13
2022-08-20T04:58:53.837Z,18.40
2022-08-20T05:01:23.753Z,18.73
2022-08-20T05:03:54.632Z,18.92
2022-08-20T05:06:25.973Z,19.67
2022-08-20T05:08:54.432Z,17.95
2022-08-20T05:11:33.992Z,17.50
2022-08-20T05:14:08.565Z,18.13
2022-08-20T05:16:39.080Z,18.70
2022-08-20T05:19:08.437Z,17.90
2022-08-20T05:21:38.098Z,17.90
2022-08-20T05:24:06.806Z,18.00
2022-08-20T05:26:34.825Z,16.85
2022-08-20T05:29:04.851Z,16.92
2022-08-20T05:31:33.813Z,16.83
2022-08-20T05:34:02.829Z,18.27
2022-08-20T05:36:30.970Z,17.15
2022-08-20T05:39:00.486Z,16.13
2022-08-20T05:41:30.428Z,17.52
2022-08-20T05:44:01.751Z,16.20
2022-08-20T05:46:31.135Z,16.95
2022-08-20T05:49:01.392Z,16.67
2022-08-20T05:51:30.535Z,15.45
2022-08-20T05:54:00.029Z,16.00
2022-08-20T05:56:30.260Z,16.40
2022-08-20T05:58:59.282Z,16.67
2022-08-20T06:01:27.482Z,15.85
2022-08-20T06:04:12.886Z,15.38
2022-08-20T06:06:44.538Z,16.23
2022-08-20T06:09:16.418Z,14.60
2022-08-20T06:11:59.265Z,14.32
2022-08-20T06:14:27.676Z,14.65
2022-08-20T06:16:57.805Z,14.00
2022-08-20T06:19:32.224Z,14.85
2022-08-20T06:22:01.008Z,14.55
2022-08-20T06:24:30.596Z,13.65
2022-08-20T06:26:59.484Z,13.82
2022-08-20T06:29:28.952Z,14.02
2022-08-20T06:31:57.322Z,13.85
2022-08-20T06:34:28.453Z,13.25
2022-08-20T06:37:00.692Z,12.95
2022-08-20T06:39:31.186Z,13.98
2022-08-20T06:41:59.622Z,13.27
2022-08-20T06:44:28.487Z,12.50
2022-08-20T06:47:01.100Z,12.90
2022-08-20T06:52:04.691Z,11.73
2022-08-20T06:54:35.082Z,12.15
2022-08-20T06:57:04.599Z,11.70
2022-08-20T06:59:32.739Z,11.07
2022-08-20T07:02:00.815Z,10.10
2022-08-20T07:04:28.890Z,12.00
2022-08-20T07:06:58.451Z,11.32
2022-08-20T07:09:28.258Z,11.48
2022-08-20T07:11:57.714Z,10.90
2022-08-20T07:14:26.019Z,10.88
2022-08-20T07:16:54.009Z,10.43
2022-08-20T07:19:22.424Z,10.93
2022-08-20T07:21:50.708Z,10.30
2022-08-20T07:24:19.294Z,10.13
2022-08-20T07:26:47.443Z,10.63
2022-08-20T07:29:17.018Z,9.60
2022-08-20T07:32:06.841Z,10.90
2022-08-20T07:34:37.806Z,9.80
2022-08-20T07:37:11.848Z,9.52
2022-08-20T07:39:40.019Z,9.95
2022-08-20T07:42:08.653Z,10.02
2022-08-20T07:44:39.383Z,10.20
2022-08-20T07:47:07.868Z,9.63
2022-08-20T07:49:39.136Z,10.07
2022-08-20T07:52:08.193Z,9.77
2022-08-20T07:54:38.148Z,9.02
2022-08-20T07:57:06.544Z,9.48
2022-08-20T07:59:34.566Z,9.95
2022-08-20T08:02:04.126Z,9.35
2022-08-20T08:04:32.164Z,9.43
2022-08-20T08:07:00.904Z,9.25
2022-08-20T08:09:29.557Z,10.32
2022-08-20T08:11:59.174Z,9.50
2022-08-20T08:14:30.166Z,9.48
2022-08-20T08:17:03.129Z,9.57
2022-08-20T08:19:38.709Z,10.05
2022-08-20T08:22:12.170Z,9.25
2022-08-20T08:24:40.838Z,8.98
2022-08-20T08:27:09.237Z,10.27
2022-08-20T08:29:37.501Z,9.70
2022-08-20T08:32:06.818Z,10.05
2022-08-20T08:34:38.040Z,10.50
2022-08-20T08:37:06.646Z,10.20
2022-08-20T08:39:35.254Z,10.25
2022-08-20T08:42:05.155Z,10.20
2022-08-20T08:44:38.728Z,9.63
2022-08-20T08:47:18.567Z,9.65
2022-08-20T08:49:48.879Z,8.75
2022-08-20T08:52:22.240Z,9.50
2022-08-20T08:54:54.449Z,9.13
2022-08-20T08:57:23.393Z,8.60
2022-08-20T09:00:03.950Z,8.93
2022-08-20T09:02:35.287Z,8.88
2022-08-20T09:05:14.663Z,8.80
2022-08-20T09:07:54.266Z,9.48
2022-08-20T09:10:23.201Z,9.23
2022-08-20T09:12:52.334Z,9.65
2022-08-20T09:15:21.208Z,9.13
2022-08-20T09:17:49.263Z,9.15
2022-08-20T09:20:19.445Z,9.40
2022-08-20T09:22:47.815Z,8.50
2022-08-20T09:25:19.754Z,8.68
2022-08-20T09:27:47.884Z,8.57
2022-08-20T09:30:18.981Z,8.68
2022-08-20T09:32:48.552Z,8.00
2022-08-20T09:35:18.009Z,8.10
2022-08-20T09:37:46.951Z,7.75
2022-08-20T09:40:21.350Z,7.85
2022-08-20T09:42:50.504Z,7.70
2022-08-20T09:45:19.500Z,7.65
2022-08-20T09:48:01.918Z,7.13
2022-08-20T09:50:34.224Z,7.00
2022-08-20T09:53:04.336Z,7.55
2022-08-20T09:55:36.671Z,7.18
2022-08-20T09:58:09.121Z,6.47
2022-08-20T10:00:37.433Z,6.93
2022-08-20T10:03:05.565Z,7.18
2022-08-20T10:05:35.237Z,7.15
2022-08-20T10:08:06.804Z,6.60
2022-08-20T10:10:34.960Z,7.13
2022-08-20T10:13:03.076Z,7.20
2022-08-20T10:15:31.624Z,7.82
2022-08-20T10:17:59.853Z,7.97
2022-08-20T10:20:27.972Z,8.05
2022-08-20T10:22:57.593Z,7.55
2022-08-20T10:25:25.714Z,7.47
2022-08-20T10:27:53.909Z,6.25
2022-08-20T10:30:22.521Z,6.75
2022-08-20T10:32:50.623Z,6.72
2022-08-20T10:35:19.599Z,5.95
2022-08-20T10:37:47.759Z,6.30
2022-08-20T10:40:17.418Z,6.57
2022-08-20T10:42:45.961Z,6.78
2022-08-20T10:45:16.277Z,7.13
2022-08-20T10:47:44.842Z,6.50
2022-08-20T10:50:19.886Z,4.80
2022-08-20T10:52:48.096Z,4.88
2022-08-20T10:55:17.980Z,3.65
2022-08-20T10:57:46.710Z,3.55
2022-08-20T11:00:17.357Z,4.43
2022-08-20T11:02:45.500Z,4.03
2022-08-20T11:05:13.649Z,3.92
2022-08-20T11:07:49.808Z,4.18
2022-08-20T11:13:01.765Z,4.03
2022-08-20T11:15:29.938Z,3.83
2022-08-20T11:17:58.342Z,4.57
2022-08-20T11:20:27.301Z,4.50
2022-08-20T11:22:55.893Z,3.65
2022-08-20T11:25:24.163Z,3.25
2022-08-20T11:27:54.755Z,2.80
2022-08-20T11:30:26.287Z,2.92
2022-08-20T11:32:54.891Z,2.47
2022-08-20T11:35:43.262Z,2.95
2022-08-20T11:38:11.921Z,2.97
2022-08-20T11:40:40.170Z,2.42
2022-08-20T11:43:17.971Z,2.38
2022-08-20T11:45:48.704Z,2.95
2022-08-20T11:48:18.382Z,2.45
2022-08-20T11:50:46.902Z,2.80
2022-08-20T11:53:15.280Z,2.60
2022-08-20T11:55:43.892Z,2.50
2022-08-20T11:58:13.465Z,3.00
2022-08-20T12:00:41.980Z,3.40
2022-08-20T12:03:11.878Z,3.28
2022-08-20T12:05:41.131Z,3.38
2022-08-20T12:08:09.645Z,1.88
2022-08-20T12:10:37.960Z,0.95
2022-08-20T12:13:06.247Z,1.52
2022-08-20T12:15:37.250Z,1.60
2022-08-20T12:18:08.022Z,1.25
2022-08-20T12:20:36.753Z,1.77
2022-08-20T12:23:05.489Z,0.80
2022-08-20T12:25:34.154Z,0.90
2022-08-20T12:28:02.950Z,1.35
2022-08-20T12:30:31.192Z,1.40
2022-08-20T12:33:01.096Z,1.65
2022-08-20T12:35:29.694Z,1.45
2022-08-20T12:37:59.947Z,2.03
2022-08-20T12:40:32.192Z,1.42
2022-08-20T12:43:01.597Z,1.40
2022-08-20T12:45:29.797Z,1.75
2022-08-20T12:48:04.443Z,1.90
2022-08-20T12:50:33.390Z,2.03
2022-08-20T12:53:01.739Z,1.90
2022-08-20T12:55:30.367Z,2.50
2022-08-20T12:58:00.381Z,2.53
2022-08-20T13:00:31.341Z,2.25
2022-08-20T13:03:03.910Z,2.03
2022-08-20T13:05:32.695Z,1.60
2022-08-20T13:08:01.180Z,1.63
2022-08-20T13:10:32.371Z,1.42
2022-08-20T13:13:02.152Z,1.73
2022-08-20T13:15:31.234Z,1.65
2022-08-20T13:18:01.972Z,1.33
2022-08-20T13:20:34.585Z,2.05
2022-08-20T13:23:03.913Z,1.58
2022-08-20T13:25:32.511Z,1.92
2022-08-20T13:28:04.001Z,1.98
2022-08-20T13:30:33.407Z,2.03
2022-08-20T13:33:01.674Z,1.80
2022-08-20T13:35:32.382Z,1.58
2022-08-20T13:38:00.560Z,1.83
2022-08-20T13:40:28.901Z,1.50
2022-08-20T13:42:57.214Z,1.98
2022-08-20T13:45:25.509Z,1.83
2022-08-20T13:47:55.981Z,1.95
2022-08-20T13:50:26.241Z,2.45
2022-08-20T13:52:56.487Z,2.03
2022-08-20T13:55:27.871Z,1.80
2022-08-20T13:57:58.011Z,1.70
2022-08-20T14:00:31.109Z,1.50
2022-08-20T14:03:00.423Z,1.83
2022-08-20T14:05:28.816Z,1.60
2022-08-20T14:08:05.614Z,2.50
2022-08-20T14:10:33.838Z,2.58
2022-08-20T14:13:03.354Z,2.85
2022-08-20T14:15:31.751Z,2.80
2022-08-20T14:17:59.863Z,2.63
2022-08-20T14:20:32.052Z,2.08
2022-08-20T14:23:02.745Z,2.90
2022-08-20T14:25:32.821Z,2.92
2022-08-20T14:28:10.738Z,3.45
2022-08-20T14:30:39.262Z,3.13
2022-08-20T14:33:07.507Z,1.55
2022-08-20T14:35:35.766Z,1.20
2022-08-20T14:38:06.460Z,1.40
2022-08-20T14:40:35.460Z,0.93
2022-08-20T14:43:05.023Z,0.90
2022-08-20T14:45:33.790Z,1.10
2022-08-20T14:48:01.882Z,1.50
2022-08-20T14:50:33.409Z,0.90
2022-08-20T14:53:02.451Z,0.90
2022-08-20T14:55:35.867Z,1.20
2022-08-20T14:58:08.487Z,1.55
2022-08-20T15:00:36.775Z,1.40
2022-08-20T15:03:05.012Z,1.58
2022-08-20T15:05:33.614Z,1.60
2022-08-20T15:08:01.806Z,1.60
2022-08-20T15:10:33.755Z,1.48
2022-08-20T15:13:02.659Z,1.27
2022-08-20T15:15:31.209Z,1.42
2022-08-20T15:18:01.135Z,1.40
2022-08-20T15:20:31.876Z,1.83
2022-08-20T15:23:00.463Z,1.85
2022-08-20T15:25:36.155Z,2.05
2022-08-20T15:28:09.339Z,2.35
2022-08-20T15:30:39.386Z,1.70
2022-08-20T15:33:07.638Z,1.67
2022-08-20T15:35:36.392Z,1.80
2022-08-20T15:38:04.568Z,1.85
2022-08-20T15:40:34.046Z,1.80
2022-08-20T15:43:04.505Z,1.83
2022-08-20T15:45:35.699Z,1.95
2022-08-20T15:48:11.592Z,2.08
2022-08-20T15:51:00.320Z,1.60
2022-08-20T15:53:34.376Z,2.05
2022-08-20T15:56:11.798Z,2.20
2022-08-20T15:58:52.553Z,2.15
2022-08-20T16:01:33.521Z,2.08
2022-08-20T16:04:24.203Z,2.03
2022-08-20T16:06:55.427Z,2.13
2022-08-20T16:09:41.665Z,2.50
2022-08-20T16:12:12.172Z,1.88
2022-08-20T16:14:43.103Z,1.95
2022-08-20T16:17:16.709Z,2.15
2022-08-20T16:19:57.315Z,2.13
2022-08-20T16:22:28.194Z,2.10
2022-08-20T16:24:56.945Z,2.13
2022-08-20T16:27:31.613Z,1.90
2022-08-20T16:30:05.365Z,1.73
2022-08-20T16:32:40.962Z,1.70
2022-08-20T16:35:29.575Z,1.92
2022-08-20T16:38:04.663Z,1.83
2022-08-20T16:40:37.403Z,1.42
2022-08-20T16:43:07.866Z,2.10
2022-08-20T16:45:50.117Z,2.20
2022-08-20T16:48:21.608Z,1.17
2022-08-20T16:50:58.603Z,1.33
2022-08-20T16:53:27.988Z,1.20
2022-08-20T16:55:57.733Z,1.17
2022-08-20T16:58:28.316Z,1.35
2022-08-20T17:01:10.914Z,1.00
2022-08-20T17:03:50.085Z,1.30
2022-08-20T17:06:28.091Z,0.90
2022-08-20T17:08:56.542Z,0.90
2022-08-20T17:11:30.964Z,1.40
2022-08-20T17:14:20.370Z,1.10
2022-08-20T17:16:52.207Z,1.25
2022-08-20T17:19:30.466Z,1.60
2022-08-20T17:22:10.390Z,1.60
2022-08-20T17:24:40.472Z,1.67
2022-08-20T17:27:13.662Z,1.27
2022-08-20T17:29:50.829Z,1.40
2022-08-20T17:32:28.954Z,1.42
2022-08-20T17:35:00.613Z,1.42
2022-08-20T17:37:32.728Z,1.00
2022-08-20T17:40:10.679Z,2.17
2022-08-20T17:42:48.808Z,1.65
2022-08-20T17:45:22.825Z,1.25
2022-08-20T17:47:51.818Z,1.48
2022-08-20T17:50:25.349Z,1.50
2022-08-20T17:52:57.594Z,1.30
2022-08-20T17:55:27.548Z,1.58
2022-08-20T17:58:01.030Z,1.73
2022-08-20T18:00:29.917Z,1.50
2022-08-20T18:03:01.005Z,2.08
2022-08-20T18:05:35.434Z,1.63
2022-08-20T18:08:20.333Z,2.00
2022-08-20T18:11:20.106Z,1.30
2022-08-20T18:14:20.644Z,1.60
2022-08-20T18:17:03.132Z,1.65
2022-08-20T18:20:04.832Z,1.45
2022-08-20T18:22:36.838Z,1.50
2022-08-20T18:25:17.280Z,1.23
2022-08-20T18:27:49.626Z,1.20
2022-08-20T18:30:19.995Z,1.63
2022-08-20T18:32:51.724Z,1.90
2022-08-20T18:35:23.310Z,1.97
2022-08-20T18:37:53.466Z,1.33
2022-08-20T18:40:29.248Z,1.60
2022-08-20T18:43:00.310Z,2.00
2022-08-20T18:45:30.712Z,1.50
2022-08-20T18:47:59.995Z,2.08
2022-08-20T18:50:32.945Z,2.45
2022-08-20T18:53:18.426Z,1.90
2022-08-20T18:55:49.322Z,1.80
2022-08-20T18:58:31.270Z,1.75
2022-08-20T19:01:01.313Z,1.40
2022-08-20T19:03:37.899Z,1.20
2022-08-20T19:06:18.127Z,1.30
2022-08-20T19:08:52.933Z,1.60
2022-08-20T19:12:00.299Z,1.00
2022-08-20T19:14:39.656Z,1.00
2022-08-20T19:17:12.705Z,0.70
2022-08-20T19:19:41.115Z,1.30
2022-08-20T19:22:12.740Z,1.20
2022-08-20T19:24:44.370Z,1.13
2022-08-20T19:27:13.652Z,1.30
2022-08-20T19:29:56.926Z,0.95
2022-08-20T19:32:28.082Z,0.70
2022-08-20T19:34:58.474Z,1.45
2022-08-20T19:37:38.569Z,1.02
2022-08-20T19:40:22.657Z,1.00
2022-08-20T19:42:54.179Z,1.02
2022-08-20T19:45:29.133Z,1.30
2022-08-20T19:48:12.040Z,1.10
2022-08-20T19:53:30.413Z,0.75
2022-08-20T19:56:02.030Z,0.80
2022-08-20T19:58:32.436Z,1.00
2022-08-20T20:01:03.317Z,1.40
2022-08-20T20:03:33.520Z,1.30
2022-08-20T20:06:15.161Z,0.80
2022-08-20T20:08:51.154Z,1.05
2022-08-20T20:11:34.107Z,0.98
2022-08-20T20:14:05.345Z,0.75
2022-08-20T20:16:34.474Z,0.70
2022-08-20T20:19:25.298Z,0.85
2022-08-20T20:22:05.040Z,1.10
2022-08-20T20:24:42.975Z,1.05
2022-08-20T20:27:20.183Z,1.25
2022-08-20T20:29:50.045Z,1.20
2022-08-20T20:32:21.938Z,0.95
2022-08-20T20:34:56.087Z,1.00
2022-08-20T20:37:49.332Z,1.23
2022-08-20T20:40:25.825Z,1.35
2022-08-20T20:43:05.272Z,0.82
2022-08-20T20:45:37.643Z,1.40
2022-08-20T20:48:19.460Z,1.10
2022-08-20T20:50:48.823Z,0.90
2022-08-20T20:53:47.262Z,1.45
2022-08-20T20:56:28.154Z,1.30
2022-08-20T20:59:01.237Z,1.13
2022-08-20T21:01:49.444Z,1.35
2022-08-20T21:04:19.761Z,1.20
2022-08-20T21:06:48.398Z,1.30
2022-08-20T21:09:16.739Z,1.40
2022-08-20T21:11:44.856Z,1.30
2022-08-20T21:14:14.585Z,1.30
2022-08-20T21:16:44.627Z,1.23
2022-08-20T21:19:13.375Z,1.40
2022-08-20T21:21:42.429Z,1.40
2022-08-20T21:24:10.797Z,1.15
2022-08-20T21:26:39.509Z,1.75
2022-08-20T21:29:10.482Z,1.58
2022-08-20T21:31:43.638Z,1.73
2022-08-20T21:34:13.973Z,1.70
2022-08-20T21:36:42.515Z,2.05
2022-08-20T21:39:11.876Z,1.45
2022-08-20T21:41:42.774Z,1.50
2022-08-20T21:44:21.180Z,1.65
2022-08-20T21:46:52.209Z,2.10
2022-08-20T21:49:20.658Z,1.70
2022-08-20T21:51:49.470Z,1.50
2022-08-20T21:54:17.824Z,1.70
2022-08-20T21:56:49.461Z,1.88
2022-08-20T21:59:18.333Z,1.50
2022-08-20T22:01:46.778Z,1.38
2022-08-20T22:04:16.969Z,1.73
2022-08-20T22:06:45.494Z,1.42
2022-08-20T22:09:14.169Z,1.80
2022-08-20T22:11:42.559Z,1.35
2022-08-20T22:14:12.120Z,1.55
2022-08-20T22:16:42.937Z,1.40
2022-08-20T22:19:16.091Z,1.63
2022-08-20T22:21:46.098Z,1.17
2022-08-20T22:24:15.519Z,1.70
2022-08-20T22:26:44.489Z,1.38
2022-08-20T22:29:13.516Z,1.40
2022-08-20T22:31:43.761Z,1.40
2022-08-20T22:34:13.570Z,1.38
2022-08-20T22:36:43.055Z,1.60
2022-08-20T22:39:12.675Z,1.30
2022-08-20T22:41:40.932Z,1.35
2022-08-20T22:44:09.096Z,0.98
2022-08-20T22:46:43.673Z,1.42
2022-08-20T22:49:36.188Z,1.23
2022-08-20T22:52:04.854Z,1.10
2022-08-20T22:54:36.092Z,0.95
2022-08-20T22:57:08.795Z,1.23
2022-08-20T22:59:45.871Z,1.10
2022-08-20T23:02:20.031Z,1.00
2022-08-20T23:04:48.176Z,1.00
2022-08-20T23:07:20.481Z,1.05
2022-08-20T23:09:50.164Z,0.98
2022-08-20T23:12:18.393Z,1.20
2022-08-20T23:14:46.703Z,1.20
2022-08-20T23:17:19.201Z,0.80
2022-08-20T23:19:49.549Z,1.05
2022-08-20T23:22:19.334Z,1.05
2022-08-20T23:24:49.306Z,1.20
2022-08-20T23:27:20.680Z,1.10
2022-08-20T23:29:49.263Z,1.20
2022-08-20T23:32:17.801Z,1.00
2022-08-20T23:34:46.089Z,1.20
2022-08-20T23:37:14.890Z,1.05
2022-08-20T23:39:46.171Z,1.20
2022-08-20T23:42:16.964Z,1.50
2022-08-20T23:44:45.419Z,1.35
2022-08-20T23:47:19.391Z,1.15
2022-08-20T23:49:48.194Z,1.05
2022-08-20T23:52:16.430Z,0.90
2022-08-20T23:54:44.661Z,1.38
2022-08-20T23:57:13.053Z,0.93
2022-08-20T23:59:43.554Z,1.45
